sensor_id;sensor_type;location;lat;lon;timestamp;temperature;humidity
5222;DHT22;2630;52.036;8.514;2022-12-07T00:04:09;4.80;99.90
5222;DHT22;2630;52.036;8.514;2022-12-07T00:06:37;4.80;99.90
5222;DHT22;2630;52.036;8.514;2022-12-07T00:09:09;4.80;99.90
5222;DHT22;2630;52.036;8.514;2022-12-07T00:11:35;4.80;99.90
5222;DHT22;2630;52.036;8.514;2022-12-07T00:14:03;4.80;99.90
5222;DHT22;2630;52.036;8.514;2022-12-07T00:16:31;4.80;99.90
5222;DHT22;2630;52.036;8.514;2022-12-07T00:18:57;4.80;99.90
5222;DHT22;2630;52.036;8.514;2022-12-07T00:21:29;4.80;99.90
5222;DHT22;2630;52.036;8.514;2022-12-07T00:26:24;4.80;99.90
5222;DHT22;2630;52.036;8.514;2022-12-07T00:28:52;4.90;99.90
5222;DHT22;2630;52.036;8.514;2022-12-07T00:31:20;4.80;99.90
5222;DHT22;2630;52.036;8.514;2022-12-07T00:33:46;4.80;99.90
5222;DHT22;2630;52.036;8.514;2022-12-07T00:36:14;4.80;99.90
5222;DHT22;2630;52.036;8.514;2022-12-07T00:38:40;4.80;99.90
5222;DHT22;2630;52.036;8.514;2022-12-07T00:43:37;4.80;99.90
5222;DHT22;2630;52.036;8.514;2022-12-07T00:46:03;4.80;99.90
5222;DHT22;2630;52.036;8.514;2022-12-07T00:48:29;4.80;99.90
5222;DHT22;2630;52.036;8.514;2022-12-07T00:55:46;4.80;99.90
5222;DHT22;2630;52.036;8.514;2022-12-07T00:58:12;4.90;99.90
5222;DHT22;2630;52.036;8.514;2022-12-07T01:00:39;4.90;99.90
5222;DHT22;2630;52.036;8.514;2022-12-07T01:03:07;4.80;99.90
5222;DHT22;2630;52.036;8.514;2022-12-07T01:05:32;4.90;99.90
5222;DHT22;2630;52.036;8.514;2022-12-07T01:07:58;4.90;99.90
5222;DHT22;2630;52.036;8.514;2022-12-07T01:10:24;4.90;99.90
5222;DHT22;2630;52.036;8.514;2022-12-07T01:12:49;5.00;99.90
5222;DHT22;2630;52.036;8.514;2022-12-07T01:15:15;5.10;99.90
5222;DHT22;2630;52.036;8.514;2022-12-07T01:17:41;5.00;99.90
5222;DHT22;2630;52.036;8.514;2022-12-07T01:20:07;5.00;99.90
5222;DHT22;2630;52.036;8.514;2022-12-07T01:22:40;5.00;99.90
5222;DHT22;2630;52.036;8.514;2022-12-07T01:25:07;5.00;99.90
5222;DHT22;2630;52.036;8.514;2022-12-07T01:30:00;5.00;99.90
5222;DHT22;2630;52.036;8.514;2022-12-07T01:32:26;5.00;99.90
5222;DHT22;2630;52.036;8.514;2022-12-07T01:34:52;5.00;99.90
5222;DHT22;2630;52.036;8.514;2022-12-07T01:37:17;4.90;99.90
5222;DHT22;2630;52.036;8.514;2022-12-07T01:39:43;4.90;99.90
5222;DHT22;2630;52.036;8.514;2022-12-07T01:42:12;4.70;99.90
5222;DHT22;2630;52.036;8.514;2022-12-07T01:47:41;4.60;99.90
5222;DHT22;2630;52.036;8.514;2022-12-07T01:52:36;4.50;99.90
5222;DHT22;2630;52.036;8.514;2022-12-07T01:55:13;4.50;99.90
5222;DHT22;2630;52.036;8.514;2022-12-07T01:57:44;4.50;99.90
5222;DHT22;2630;52.036;8.514;2022-12-07T02:00:12;4.50;99.90
5222;DHT22;2630;52.036;8.514;2022-12-07T02:02:42;4.50;99.90
5222;DHT22;2630;52.036;8.514;2022-12-07T02:05:09;4.40;99.90
5222;DHT22;2630;52.036;8.514;2022-12-07T02:07:36;4.40;99.90
5222;DHT22;2630;52.036;8.514;2022-12-07T02:12:41;4.30;99.90
5222;DHT22;2630;52.036;8.514;2022-12-07T02:15:07;4.20;99.90
5222;DHT22;2630;52.036;8.514;2022-12-07T02:20:47;4.20;99.90
5222;DHT22;2630;52.036;8.514;2022-12-07T02:23:29;4.10;99.90
5222;DHT22;2630;52.036;8.514;2022-12-07T02:29:14;4.00;99.90
5222;DHT22;2630;52.036;8.514;2022-12-07T02:31:56;3.90;99.90
5222;DHT22;2630;52.036;8.514;2022-12-07T02:34:46;3.90;99.90
5222;DHT22;2630;52.036;8.514;2022-12-07T02:37:33;3.90;99.90
5222;DHT22;2630;52.036;8.514;2022-12-07T02:40:31;3.90;99.90
5222;DHT22;2630;52.036;8.514;2022-12-07T02:43:07;3.90;99.90
5222;DHT22;2630;52.036;8.514;2022-12-07T02:45:36;3.90;99.90
5222;DHT22;2630;52.036;8.514;2022-12-07T02:50:31;3.90;99.90
5222;DHT22;2630;52.036;8.514;2022-12-07T02:52:56;3.80;99.90
5222;DHT22;2630;52.036;8.514;2022-12-07T02:55:30;3.80;99.90
5222;DHT22;2630;52.036;8.514;2022-12-07T02:58:06;3.80;99.90
5222;DHT22;2630;52.036;8.514;2022-12-07T03:00:44;3.80;99.90
5222;DHT22;2630;52.036;8.514;2022-12-07T03:03:14;3.80;99.90
5222;DHT22;2630;52.036;8.514;2022-12-07T03:11:10;3.70;99.90
5222;DHT22;2630;52.036;8.514;2022-12-07T03:13:44;3.60;99.90
5222;DHT22;2630;52.036;8.514;2022-12-07T03:16:33;3.60;99.90
5222;DHT22;2630;52.036;8.514;2022-12-07T03:19:06;3.70;99.90
5222;DHT22;2630;52.036;8.514;2022-12-07T03:21:37;3.60;99.90
5222;DHT22;2630;52.036;8.514;2022-12-07T03:24:08;3.70;99.90
5222;DHT22;2630;52.036;8.514;2022-12-07T03:26:38;3.60;99.90
5222;DHT22;2630;52.036;8.514;2022-12-07T03:29:26;3.60;99.90
5222;DHT22;2630;52.036;8.514;2022-12-07T03:32:02;3.60;99.90
5222;DHT22;2630;52.036;8.514;2022-12-07T03:34:53;3.60;99.90
5222;DHT22;2630;52.036;8.514;2022-12-07T03:42:53;3.60;99.90
5222;DHT22;2630;52.036;8.514;2022-12-07T03:45:23;3.50;99.90
5222;DHT22;2630;52.036;8.514;2022-12-07T03:48:20;3.50;99.90
5222;DHT22;2630;52.036;8.514;2022-12-07T03:50:52;3.50;99.90
5222;DHT22;2630;52.036;8.514;2022-12-07T03:53:34;3.50;99.90
5222;DHT22;2630;52.036;8.514;2022-12-07T03:58:26;3.40;99.90
5222;DHT22;2630;52.036;8.514;2022-12-07T04:00:52;3.50;99.90
5222;DHT22;2630;52.036;8.514;2022-12-07T04:03:18;3.50;99.90
5222;DHT22;2630;52.036;8.514;2022-12-07T04:05:44;3.50;99.90
5222;DHT22;2630;52.036;8.514;2022-12-07T04:08:10;3.60;99.90
5222;DHT22;2630;52.036;8.514;2022-12-07T04:10:36;3.60;99.90
5222;DHT22;2630;52.036;8.514;2022-12-07T04:15:27;3.70;99.90
5222;DHT22;2630;52.036;8.514;2022-12-07T04:17:53;3.70;99.90
5222;DHT22;2630;52.036;8.514;2022-12-07T04:20:20;3.70;99.90
5222;DHT22;2630;52.036;8.514;2022-12-07T04:22:45;3.70;99.90
5222;DHT22;2630;52.036;8.514;2022-12-07T04:25:11;3.70;99.90
5222;DHT22;2630;52.036;8.514;2022-12-07T04:27:36;3.60;99.90
5222;DHT22;2630;52.036;8.514;2022-12-07T04:30:03;3.60;99.90
5222;DHT22;2630;52.036;8.514;2022-12-07T04:32:28;3.60;99.90
5222;DHT22;2630;52.036;8.514;2022-12-07T04:34:54;3.70;99.90
5222;DHT22;2630;52.036;8.514;2022-12-07T04:37:19;3.60;99.90
5222;DHT22;2630;52.036;8.514;2022-12-07T04:39:45;3.60;99.90
5222;DHT22;2630;52.036;8.514;2022-12-07T04:42:11;3.60;99.90
5222;DHT22;2630;52.036;8.514;2022-12-07T04:44:38;3.50;99.90
5222;DHT22;2630;52.036;8.514;2022-12-07T04:47:03;3.50;99.90
5222;DHT22;2630;52.036;8.514;2022-12-07T04:49:29;3.50;99.90
5222;DHT22;2630;52.036;8.514;2022-12-07T04:54:21;3.40;99.90
5222;DHT22;2630;52.036;8.514;2022-12-07T04:56:47;3.40;99.90
5222;DHT22;2630;52.036;8.514;2022-12-07T04:59:14;3.40;99.90
5222;DHT22;2630;52.036;8.514;2022-12-07T05:01:40;3.40;99.90
5222;DHT22;2630;52.036;8.514;2022-12-07T05:06:32;3.40;99.90
5222;DHT22;2630;52.036;8.514;2022-12-07T05:08:57;3.40;99.90
5222;DHT22;2630;52.036;8.514;2022-12-07T05:11:23;3.50;99.90
5222;DHT22;2630;52.036;8.514;2022-12-07T05:14:14;3.50;99.90
5222;DHT22;2630;52.036;8.514;2022-12-07T05:16:41;3.50;99.90
5222;DHT22;2630;52.036;8.514;2022-12-07T05:19:08;3.50;99.90
5222;DHT22;2630;52.036;8.514;2022-12-07T05:21:34;3.50;99.90
5222;DHT22;2630;52.036;8.514;2022-12-07T05:24:00;3.50;99.90
5222;DHT22;2630;52.036;8.514;2022-12-07T05:26:25;3.60;99.90
5222;DHT22;2630;52.036;8.514;2022-12-07T05:28:52;3.60;99.90
5222;DHT22;2630;52.036;8.514;2022-12-07T05:31:18;3.60;99.90
5222;DHT22;2630;52.036;8.514;2022-12-07T05:33:43;3.60;99.90
5222;DHT22;2630;52.036;8.514;2022-12-07T05:36:09;3.60;99.90
5222;DHT22;2630;52.036;8.514;2022-12-07T05:38:34;3.60;99.90
5222;DHT22;2630;52.036;8.514;2022-12-07T05:41:04;3.60;99.90
5222;DHT22;2630;52.036;8.514;2022-12-07T05:43:30;3.60;99.90
5222;DHT22;2630;52.036;8.514;2022-12-07T05:45:56;3.60;99.90
5222;DHT22;2630;52.036;8.514;2022-12-07T05:48:22;3.60;99.90
5222;DHT22;2630;52.036;8.514;2022-12-07T05:50:48;3.50;99.90
5222;DHT22;2630;52.036;8.514;2022-12-07T05:53:14;3.50;99.90
5222;DHT22;2630;52.036;8.514;2022-12-07T05:55:39;3.50;99.90
5222;DHT22;2630;52.036;8.514;2022-12-07T06:00:50;3.50;99.90
5222;DHT22;2630;52.036;8.514;2022-12-07T06:03:15;3.30;99.90
5222;DHT22;2630;52.036;8.514;2022-12-07T06:05:41;3.30;99.90
5222;DHT22;2630;52.036;8.514;2022-12-07T06:08:07;3.30;99.90
5222;DHT22;2630;52.036;8.514;2022-12-07T06:10:33;3.20;99.90
5222;DHT22;2630;52.036;8.514;2022-12-07T06:12:58;3.20;99.90
5222;DHT22;2630;52.036;8.514;2022-12-07T06:17:50;3.20;99.90
5222;DHT22;2630;52.036;8.514;2022-12-07T06:20:15;3.20;99.90
5222;DHT22;2630;52.036;8.514;2022-12-07T06:22:41;3.20;99.90
5222;DHT22;2630;52.036;8.514;2022-12-07T06:25:07;3.10;99.90
5222;DHT22;2630;52.036;8.514;2022-12-07T06:29:59;3.00;99.90
5222;DHT22;2630;52.036;8.514;2022-12-07T06:32:25;2.90;99.90
5222;DHT22;2630;52.036;8.514;2022-12-07T06:34:53;3.00;99.90
5222;DHT22;2630;52.036;8.514;2022-12-07T06:39:45;3.00;99.90
5222;DHT22;2630;52.036;8.514;2022-12-07T06:42:11;3.10;99.90
5222;DHT22;2630;52.036;8.514;2022-12-07T06:44:36;3.10;99.90
5222;DHT22;2630;52.036;8.514;2022-12-07T06:49:28;3.00;99.90
5222;DHT22;2630;52.036;8.514;2022-12-07T06:51:54;2.90;99.90
5222;DHT22;2630;52.036;8.514;2022-12-07T06:54:19;2.90;99.90
5222;DHT22;2630;52.036;8.514;2022-12-07T06:56:45;2.90;99.90
5222;DHT22;2630;52.036;8.514;2022-12-07T07:01:36;2.80;99.90
5222;DHT22;2630;52.036;8.514;2022-12-07T07:06:28;2.80;99.90
5222;DHT22;2630;52.036;8.514;2022-12-07T07:11:20;2.80;99.90
5222;DHT22;2630;52.036;8.514;2022-12-07T07:13:45;2.80;99.90
5222;DHT22;2630;52.036;8.514;2022-12-07T07:16:12;2.70;99.90
5222;DHT22;2630;52.036;8.514;2022-12-07T07:18:38;2.70;99.90
5222;DHT22;2630;52.036;8.514;2022-12-07T07:21:04;2.60;99.90
5222;DHT22;2630;52.036;8.514;2022-12-07T07:25:56;2.70;99.90
5222;DHT22;2630;52.036;8.514;2022-12-07T07:28:22;2.70;99.90
5222;DHT22;2630;52.036;8.514;2022-12-07T07:30:47;2.70;99.90
5222;DHT22;2630;52.036;8.514;2022-12-07T07:38:05;2.70;99.90
5222;DHT22;2630;52.036;8.514;2022-12-07T07:40:31;2.70;99.90
5222;DHT22;2630;52.036;8.514;2022-12-07T07:42:57;2.70;99.90
5222;DHT22;2630;52.036;8.514;2022-12-07T07:45:24;2.70;99.90
5222;DHT22;2630;52.036;8.514;2022-12-07T07:47:50;2.70;99.90
5222;DHT22;2630;52.036;8.514;2022-12-07T07:50:17;2.70;99.90
5222;DHT22;2630;52.036;8.514;2022-12-07T07:52:43;2.70;99.90
5222;DHT22;2630;52.036;8.514;2022-12-07T07:55:09;2.70;99.90
5222;DHT22;2630;52.036;8.514;2022-12-07T07:57:38;2.80;99.90
5222;DHT22;2630;52.036;8.514;2022-12-07T08:00:08;2.80;99.90
5222;DHT22;2630;52.036;8.514;2022-12-07T08:02:34;2.90;99.90
5222;DHT22;2630;52.036;8.514;2022-12-07T08:04:59;2.90;99.90
5222;DHT22;2630;52.036;8.514;2022-12-07T08:07:26;3.00;99.90
5222;DHT22;2630;52.036;8.514;2022-12-07T08:09:52;3.00;99.90
5222;DHT22;2630;52.036;8.514;2022-12-07T08:12:17;3.00;99.90
5222;DHT22;2630;52.036;8.514;2022-12-07T08:14:43;3.00;99.90
5222;DHT22;2630;52.036;8.514;2022-12-07T08:17:08;3.00;99.90
5222;DHT22;2630;52.036;8.514;2022-12-07T08:22:00;3.10;99.90
5222;DHT22;2630;52.036;8.514;2022-12-07T08:24:26;3.20;99.90
5222;DHT22;2630;52.036;8.514;2022-12-07T08:26:52;3.40;99.90
5222;DHT22;2630;52.036;8.514;2022-12-07T08:29:17;3.50;99.90
5222;DHT22;2630;52.036;8.514;2022-12-07T08:31:43;3.60;99.90
5222;DHT22;2630;52.036;8.514;2022-12-07T08:34:10;3.60;99.90
5222;DHT22;2630;52.036;8.514;2022-12-07T08:39:02;3.70;99.90
5222;DHT22;2630;52.036;8.514;2022-12-07T08:41:28;3.70;99.90
5222;DHT22;2630;52.036;8.514;2022-12-07T08:43:53;3.80;99.90
5222;DHT22;2630;52.036;8.514;2022-12-07T08:46:38;4.00;99.90
5222;DHT22;2630;52.036;8.514;2022-12-07T08:49:51;4.10;99.90
5222;DHT22;2630;52.036;8.514;2022-12-07T08:54:24;4.20;99.90
5222;DHT22;2630;52.036;8.514;2022-12-07T08:56:49;4.20;99.90
5222;DHT22;2630;52.036;8.514;2022-12-07T08:59:18;4.20;99.90
5222;DHT22;2630;52.036;8.514;2022-12-07T09:01:44;4.20;99.90
5222;DHT22;2630;52.036;8.514;2022-12-07T09:04:10;4.20;99.90
5222;DHT22;2630;52.036;8.514;2022-12-07T09:06:36;4.20;99.90
5222;DHT22;2630;52.036;8.514;2022-12-07T09:09:03;4.10;99.90
5222;DHT22;2630;52.036;8.514;2022-12-07T09:13:55;4.00;99.90
5222;DHT22;2630;52.036;8.514;2022-12-07T09:16:21;4.20;99.90
5222;DHT22;2630;52.036;8.514;2022-12-07T09:18:46;4.30;99.90
5222;DHT22;2630;52.036;8.514;2022-12-07T09:21:12;4.40;99.90
5222;DHT22;2630;52.036;8.514;2022-12-07T09:23:37;4.50;99.90
5222;DHT22;2630;52.036;8.514;2022-12-07T09:26:04;4.60;99.90
5222;DHT22;2630;52.036;8.514;2022-12-07T09:28:32;4.60;99.90
5222;DHT22;2630;52.036;8.514;2022-12-07T09:30:58;4.80;99.90
5222;DHT22;2630;52.036;8.514;2022-12-07T09:33:24;5.00;99.90
5222;DHT22;2630;52.036;8.514;2022-12-07T09:35:51;5.00;99.90
5222;DHT22;2630;52.036;8.514;2022-12-07T09:38:17;5.10;99.90
5222;DHT22;2630;52.036;8.514;2022-12-07T09:43:27;5.20;99.90
5222;DHT22;2630;52.036;8.514;2022-12-07T09:45:54;5.10;99.90
5222;DHT22;2630;52.036;8.514;2022-12-07T09:48:25;5.10;99.90
5222;DHT22;2630;52.036;8.514;2022-12-07T09:53:33;5.00;99.90
5222;DHT22;2630;52.036;8.514;2022-12-07T09:56:00;5.00;99.90
5222;DHT22;2630;52.036;8.514;2022-12-07T10:03:22;4.90;99.90
5222;DHT22;2630;52.036;8.514;2022-12-07T10:05:50;5.00;99.90
5222;DHT22;2630;52.036;8.514;2022-12-07T10:08:17;5.10;99.90
5222;DHT22;2630;52.036;8.514;2022-12-07T10:13:17;5.30;99.90
5222;DHT22;2630;52.036;8.514;2022-12-07T10:15:53;5.30;99.90
5222;DHT22;2630;52.036;8.514;2022-12-07T10:21:10;5.30;99.90
5222;DHT22;2630;52.036;8.514;2022-12-07T10:23:38;5.30;99.90
5222;DHT22;2630;52.036;8.514;2022-12-07T10:31:19;5.40;99.90
5222;DHT22;2630;52.036;8.514;2022-12-07T10:33:58;5.40;99.90
5222;DHT22;2630;52.036;8.514;2022-12-07T10:36:37;5.50;99.90
5222;DHT22;2630;52.036;8.514;2022-12-07T10:39:13;5.60;99.90
5222;DHT22;2630;52.036;8.514;2022-12-07T10:42:00;5.60;99.90
5222;DHT22;2630;52.036;8.514;2022-12-07T10:44:31;5.50;99.90
5222;DHT22;2630;52.036;8.514;2022-12-07T10:50:12;5.60;99.90
5222;DHT22;2630;52.036;8.514;2022-12-07T11:06:15;6.00;99.90
5222;DHT22;2630;52.036;8.514;2022-12-07T11:09:04;6.00;99.90
5222;DHT22;2630;52.036;8.514;2022-12-07T11:11:35;6.00;99.90
5222;DHT22;2630;52.036;8.514;2022-12-07T11:17:17;5.90;99.90
5222;DHT22;2630;52.036;8.514;2022-12-07T11:20:19;5.80;99.90
5222;DHT22;2630;52.036;8.514;2022-12-07T11:29:08;6.00;99.90
5222;DHT22;2630;52.036;8.514;2022-12-07T11:34:33;6.00;99.90
5222;DHT22;2630;52.036;8.514;2022-12-07T11:37:03;6.00;99.90
5222;DHT22;2630;52.036;8.514;2022-12-07T11:39:50;5.90;99.90
5222;DHT22;2630;52.036;8.514;2022-12-07T11:42:31;6.00;99.90
5222;DHT22;2630;52.036;8.514;2022-12-07T11:45:20;6.10;99.90
5222;DHT22;2630;52.036;8.514;2022-12-07T11:48:03;6.20;99.90
5222;DHT22;2630;52.036;8.514;2022-12-07T11:50:52;6.30;99.90
5222;DHT22;2630;52.036;8.514;2022-12-07T12:04:27;6.10;99.90
5222;DHT22;2630;52.036;8.514;2022-12-07T12:06:54;6.10;99.90
5222;DHT22;2630;52.036;8.514;2022-12-07T12:09:29;6.20;99.90
5222;DHT22;2630;52.036;8.514;2022-12-07T12:23:48;6.00;99.90
5222;DHT22;2630;52.036;8.514;2022-12-07T12:26:20;5.90;99.90
5222;DHT22;2630;52.036;8.514;2022-12-07T12:31:31;5.90;99.90
5222;DHT22;2630;52.036;8.514;2022-12-07T12:34:00;5.90;99.90
5222;DHT22;2630;52.036;8.514;2022-12-07T12:54:23;5.70;99.90
5222;DHT22;2630;52.036;8.514;2022-12-07T12:57:09;5.60;99.90
5222;DHT22;2630;52.036;8.514;2022-12-07T12:59:41;5.70;99.90
5222;DHT22;2630;52.036;8.514;2022-12-07T13:02:28;5.80;99.90
5222;DHT22;2630;52.036;8.514;2022-12-07T13:05:01;5.90;99.90
5222;DHT22;2630;52.036;8.514;2022-12-07T13:15:42;6.00;99.90
5222;DHT22;2630;52.036;8.514;2022-12-07T13:28:42;5.50;99.90
5222;DHT22;2630;52.036;8.514;2022-12-07T13:34:38;5.30;99.90
5222;DHT22;2630;52.036;8.514;2022-12-07T13:39:52;5.10;99.90
5222;DHT22;2630;52.036;8.514;2022-12-07T13:42:30;5.10;99.90
5222;DHT22;2630;52.036;8.514;2022-12-07T13:44:58;5.20;99.90
5222;DHT22;2630;52.036;8.514;2022-12-07T13:52:25;5.40;99.90
5222;DHT22;2630;52.036;8.514;2022-12-07T13:59:56;5.60;99.90
5222;DHT22;2630;52.036;8.514;2022-12-07T14:02:33;5.70;99.90
5222;DHT22;2630;52.036;8.514;2022-12-07T14:08:03;5.50;99.90
5222;DHT22;2630;52.036;8.514;2022-12-07T14:10:31;5.50;99.90
5222;DHT22;2630;52.036;8.514;2022-12-07T14:12:59;5.50;99.90
5222;DHT22;2630;52.036;8.514;2022-12-07T14:18:02;5.40;99.90
5222;DHT22;2630;52.036;8.514;2022-12-07T14:20:31;5.30;99.90
5222;DHT22;2630;52.036;8.514;2022-12-07T14:22:57;5.20;99.90
5222;DHT22;2630;52.036;8.514;2022-12-07T14:25:27;5.10;99.90
5222;DHT22;2630;52.036;8.514;2022-12-07T14:28:00;5.10;99.90
5222;DHT22;2630;52.036;8.514;2022-12-07T14:30:28;5.10;99.90
5222;DHT22;2630;52.036;8.514;2022-12-07T14:33:02;5.10;99.90
5222;DHT22;2630;52.036;8.514;2022-12-07T14:35:29;5.00;99.90
5222;DHT22;2630;52.036;8.514;2022-12-07T14:37:55;4.90;99.90
5222;DHT22;2630;52.036;8.514;2022-12-07T14:40:26;4.90;99.90
5222;DHT22;2630;52.036;8.514;2022-12-07T14:43:04;4.80;99.90
5222;DHT22;2630;52.036;8.514;2022-12-07T14:45:31;4.80;99.90
5222;DHT22;2630;52.036;8.514;2022-12-07T14:47:57;4.70;99.90
5222;DHT22;2630;52.036;8.514;2022-12-07T14:50:23;4.70;99.90
5222;DHT22;2630;52.036;8.514;2022-12-07T14:52:52;4.80;99.90
5222;DHT22;2630;52.036;8.514;2022-12-07T14:55:23;4.80;99.90
5222;DHT22;2630;52.036;8.514;2022-12-07T14:57:49;4.80;99.90
5222;DHT22;2630;52.036;8.514;2022-12-07T15:00:17;4.70;99.90
5222;DHT22;2630;52.036;8.514;2022-12-07T15:02:44;4.80;99.90
5222;DHT22;2630;52.036;8.514;2022-12-07T15:05:10;4.80;99.90
5222;DHT22;2630;52.036;8.514;2022-12-07T15:07:36;4.70;99.90
5222;DHT22;2630;52.036;8.514;2022-12-07T15:10:02;4.80;99.90
5222;DHT22;2630;52.036;8.514;2022-12-07T15:12:28;4.80;99.90
5222;DHT22;2630;52.036;8.514;2022-12-07T15:14:54;4.80;99.90
5222;DHT22;2630;52.036;8.514;2022-12-07T15:19:45;4.80;99.90
5222;DHT22;2630;52.036;8.514;2022-12-07T15:22:10;4.70;99.90
5222;DHT22;2630;52.036;8.514;2022-12-07T15:24:37;4.70;99.90
5222;DHT22;2630;52.036;8.514;2022-12-07T15:27:03;4.70;99.90
5222;DHT22;2630;52.036;8.514;2022-12-07T15:34:21;4.70;99.90
5222;DHT22;2630;52.036;8.514;2022-12-07T15:36:46;4.70;99.90
5222;DHT22;2630;52.036;8.514;2022-12-07T15:39:12;4.70;99.90
5222;DHT22;2630;52.036;8.514;2022-12-07T15:41:38;4.80;99.90
5222;DHT22;2630;52.036;8.514;2022-12-07T15:44:03;4.70;99.90
5222;DHT22;2630;52.036;8.514;2022-12-07T15:46:48;4.80;99.90
5222;DHT22;2630;52.036;8.514;2022-12-07T15:49:16;4.70;99.90
5222;DHT22;2630;52.036;8.514;2022-12-07T15:51:43;4.70;99.90
5222;DHT22;2630;52.036;8.514;2022-12-07T15:54:13;4.70;99.90
5222;DHT22;2630;52.036;8.514;2022-12-07T15:56:41;4.70;99.90
5222;DHT22;2630;52.036;8.514;2022-12-07T15:59:06;4.70;99.90
5222;DHT22;2630;52.036;8.514;2022-12-07T16:01:32;4.70;99.90
5222;DHT22;2630;52.036;8.514;2022-12-07T16:03:57;4.70;99.90
5222;DHT22;2630;52.036;8.514;2022-12-07T16:06:24;4.80;99.90
5222;DHT22;2630;52.036;8.514;2022-12-07T16:08:50;4.70;99.90
5222;DHT22;2630;52.036;8.514;2022-12-07T16:11:16;4.60;99.90
5222;DHT22;2630;52.036;8.514;2022-12-07T16:13:42;4.50;99.90
5222;DHT22;2630;52.036;8.514;2022-12-07T16:16:11;4.10;99.90
5222;DHT22;2630;52.036;8.514;2022-12-07T16:21:03;3.90;99.90
5222;DHT22;2630;52.036;8.514;2022-12-07T16:23:30;3.60;99.90
5222;DHT22;2630;52.036;8.514;2022-12-07T16:26:07;3.50;99.90
5222;DHT22;2630;52.036;8.514;2022-12-07T16:28:33;3.50;99.90
5222;DHT22;2630;52.036;8.514;2022-12-07T16:31:04;3.20;99.90
5222;DHT22;2630;52.036;8.514;2022-12-07T16:33:30;3.10;99.90
5222;DHT22;2630;52.036;8.514;2022-12-07T16:35:56;2.90;99.90
5222;DHT22;2630;52.036;8.514;2022-12-07T16:38:23;2.90;99.90
5222;DHT22;2630;52.036;8.514;2022-12-07T16:40:48;2.80;99.90
5222;DHT22;2630;52.036;8.514;2022-12-07T16:43:14;2.70;99.90
5222;DHT22;2630;52.036;8.514;2022-12-07T16:45:40;2.70;99.90
5222;DHT22;2630;52.036;8.514;2022-12-07T16:48:05;2.70;99.90
5222;DHT22;2630;52.036;8.514;2022-12-07T16:50:31;2.80;99.90
5222;DHT22;2630;52.036;8.514;2022-12-07T16:52:56;2.90;99.90
5222;DHT22;2630;52.036;8.514;2022-12-07T16:55:22;2.90;99.90
5222;DHT22;2630;52.036;8.514;2022-12-07T16:57:47;2.90;99.90
5222;DHT22;2630;52.036;8.514;2022-12-07T17:00:13;3.00;99.90
5222;DHT22;2630;52.036;8.514;2022-12-07T17:02:39;3.10;99.90
5222;DHT22;2630;52.036;8.514;2022-12-07T17:05:04;3.10;99.90
5222;DHT22;2630;52.036;8.514;2022-12-07T17:07:30;3.20;99.90
5222;DHT22;2630;52.036;8.514;2022-12-07T17:09:56;3.20;99.90
5222;DHT22;2630;52.036;8.514;2022-12-07T17:12:21;3.20;99.90
5222;DHT22;2630;52.036;8.514;2022-12-07T17:14:47;3.30;99.90
5222;DHT22;2630;52.036;8.514;2022-12-07T17:17:31;3.30;99.90
5222;DHT22;2630;52.036;8.514;2022-12-07T17:19:56;3.30;99.90
5222;DHT22;2630;52.036;8.514;2022-12-07T17:22:22;3.40;99.90
5222;DHT22;2630;52.036;8.514;2022-12-07T17:24:48;3.40;99.90
5222;DHT22;2630;52.036;8.514;2022-12-07T17:27:13;3.50;99.90
5222;DHT22;2630;52.036;8.514;2022-12-07T17:29:39;3.40;99.90
5222;DHT22;2630;52.036;8.514;2022-12-07T17:32:04;3.40;99.90
5222;DHT22;2630;52.036;8.514;2022-12-07T17:34:30;3.50;99.90
5222;DHT22;2630;52.036;8.514;2022-12-07T17:36:55;3.60;99.90
5222;DHT22;2630;52.036;8.514;2022-12-07T17:39:21;3.60;99.90
5222;DHT22;2630;52.036;8.514;2022-12-07T17:41:47;3.60;99.90
5222;DHT22;2630;52.036;8.514;2022-12-07T17:44:31;3.60;99.90
5222;DHT22;2630;52.036;8.514;2022-12-07T17:46:57;3.60;99.90
5222;DHT22;2630;52.036;8.514;2022-12-07T17:49:24;3.70;99.90
5222;DHT22;2630;52.036;8.514;2022-12-07T17:51:50;3.80;99.90
5222;DHT22;2630;52.036;8.514;2022-12-07T17:54:35;3.80;99.90
5222;DHT22;2630;52.036;8.514;2022-12-07T17:57:00;3.90;99.90
5222;DHT22;2630;52.036;8.514;2022-12-07T18:01:52;3.90;99.90
5222;DHT22;2630;52.036;8.514;2022-12-07T18:04:17;3.90;99.90
5222;DHT22;2630;52.036;8.514;2022-12-07T18:06:43;3.90;99.90
5222;DHT22;2630;52.036;8.514;2022-12-07T18:09:09;3.90;99.90
5222;DHT22;2630;52.036;8.514;2022-12-07T18:11:35;4.10;99.90
5222;DHT22;2630;52.036;8.514;2022-12-07T18:14:01;4.20;99.90
5222;DHT22;2630;52.036;8.514;2022-12-07T18:16:29;4.20;99.90
5222;DHT22;2630;52.036;8.514;2022-12-07T18:18:59;4.10;99.90
5222;DHT22;2630;52.036;8.514;2022-12-07T18:21:26;4.10;99.90
5222;DHT22;2630;52.036;8.514;2022-12-07T18:23:54;4.00;99.90
5222;DHT22;2630;52.036;8.514;2022-12-07T18:26:21;3.90;99.90
5222;DHT22;2630;52.036;8.514;2022-12-07T18:28:48;4.00;99.90
5222;DHT22;2630;52.036;8.514;2022-12-07T18:31:13;3.90;99.90
5222;DHT22;2630;52.036;8.514;2022-12-07T18:33:40;3.90;99.90
5222;DHT22;2630;52.036;8.514;2022-12-07T18:36:06;3.90;99.90
5222;DHT22;2630;52.036;8.514;2022-12-07T18:41:00;3.80;99.90
5222;DHT22;2630;52.036;8.514;2022-12-07T18:45:51;3.70;99.90
5222;DHT22;2630;52.036;8.514;2022-12-07T18:48:19;3.70;99.90
5222;DHT22;2630;52.036;8.514;2022-12-07T18:50:46;3.70;99.90
5222;DHT22;2630;52.036;8.514;2022-12-07T18:53:13;3.70;99.90
5222;DHT22;2630;52.036;8.514;2022-12-07T18:55:38;3.70;99.90
5222;DHT22;2630;52.036;8.514;2022-12-07T18:58:05;3.70;99.90
5222;DHT22;2630;52.036;8.514;2022-12-07T19:00:32;3.70;99.90
5222;DHT22;2630;52.036;8.514;2022-12-07T19:02:58;3.70;99.90
5222;DHT22;2630;52.036;8.514;2022-12-07T19:07:51;3.80;99.90
5222;DHT22;2630;52.036;8.514;2022-12-07T19:10:17;3.70;99.90
5222;DHT22;2630;52.036;8.514;2022-12-07T19:12:44;3.80;99.90
5222;DHT22;2630;52.036;8.514;2022-12-07T19:15:11;3.80;99.90
5222;DHT22;2630;52.036;8.514;2022-12-07T19:17:37;3.90;99.90
5222;DHT22;2630;52.036;8.514;2022-12-07T19:24:56;4.00;99.90
5222;DHT22;2630;52.036;8.514;2022-12-07T19:27:23;4.00;99.90
5222;DHT22;2630;52.036;8.514;2022-12-07T19:34:43;4.00;99.90
5222;DHT22;2630;52.036;8.514;2022-12-07T19:42:02;4.00;99.90
5222;DHT22;2630;52.036;8.514;2022-12-07T19:46:56;4.00;99.90
5222;DHT22;2630;52.036;8.514;2022-12-07T19:49:23;4.00;99.90
5222;DHT22;2630;52.036;8.514;2022-12-07T19:51:52;3.90;99.90
5222;DHT22;2630;52.036;8.514;2022-12-07T19:54:22;3.90;99.90
5222;DHT22;2630;52.036;8.514;2022-12-07T19:56:48;3.90;99.90
5222;DHT22;2630;52.036;8.514;2022-12-07T20:01:42;4.00;99.90
5222;DHT22;2630;52.036;8.514;2022-12-07T20:04:18;4.00;99.90
5222;DHT22;2630;52.036;8.514;2022-12-07T20:06:45;4.00;99.90
5222;DHT22;2630;52.036;8.514;2022-12-07T20:09:11;4.00;99.90
5222;DHT22;2630;52.036;8.514;2022-12-07T20:11:37;3.90;99.90
5222;DHT22;2630;52.036;8.514;2022-12-07T20:14:21;3.90;99.90
5222;DHT22;2630;52.036;8.514;2022-12-07T20:16:47;3.90;99.90
5222;DHT22;2630;52.036;8.514;2022-12-07T20:19:13;3.90;99.90
5222;DHT22;2630;52.036;8.514;2022-12-07T20:21:40;3.90;99.90
5222;DHT22;2630;52.036;8.514;2022-12-07T20:24:09;3.60;99.90
5222;DHT22;2630;52.036;8.514;2022-12-07T20:26:35;3.90;99.90
5222;DHT22;2630;52.036;8.514;2022-12-07T20:29:08;3.90;99.90
5222;DHT22;2630;52.036;8.514;2022-12-07T20:31:34;3.90;99.90
5222;DHT22;2630;52.036;8.514;2022-12-07T20:34:00;3.90;99.90
5222;DHT22;2630;52.036;8.514;2022-12-07T20:36:26;3.90;99.90
5222;DHT22;2630;52.036;8.514;2022-12-07T20:38:51;3.80;99.90
5222;DHT22;2630;52.036;8.514;2022-12-07T20:41:18;3.80;99.90
5222;DHT22;2630;52.036;8.514;2022-12-07T20:46:28;3.80;99.90
5222;DHT22;2630;52.036;8.514;2022-12-07T20:48:57;3.80;99.90
5222;DHT22;2630;52.036;8.514;2022-12-07T20:53:50;3.70;99.90